createdAt,value
2022-09-12T00:01:15.269Z,22.02
2022-09-12T00:03:43.913Z,14.73
2022-09-12T00:06:14.220Z,19.95
2022-09-12T00:08:44.128Z,16.17
2022-09-12T00:11:19.278Z,16.52
2022-09-12T00:13:52.087Z,20.08
2022-09-12T00:16:22.816Z,20.30
2022-09-12T00:18:51.470Z,18.35
2022-09-12T00:21:20.751Z,17.75
2022-09-12T00:23:49.023Z,21.65
2022-09-12T00:26:17.778Z,15.40
2022-09-12T00:28:46.786Z,22.15
2022-09-12T00:31:18.789Z,21.55
2022-09-12T00:33:47.499Z,18.80
2022-09-12T00:36:17.764Z,19.65
2022-09-12T00:38:49.218Z,20.60
2022-09-12T00:41:20.258Z,23.70
2022-09-12T00:43:49.978Z,19.35
2022-09-12T00:46:27.915Z,14.35
2022-09-12T00:48:59.729Z,20.30
2022-09-12T00:51:28.931Z,23.40
2022-09-12T00:53:57.337Z,19.58
2022-09-12T00:56:25.914Z,18.85
2022-09-12T00:58:57.533Z,19.60
2022-09-12T01:01:31.719Z,15.93
2022-09-12T01:04:00.758Z,20.25
2022-09-12T01:06:30.610Z,15.40
2022-09-12T01:09:03.496Z,19.40
2022-09-12T01:11:32.561Z,17.58
2022-09-12T01:14:00.999Z,24.00
2022-09-12T01:16:30.812Z,17.88
2022-09-12T01:19:07.463Z,19.23
2022-09-12T01:21:38.664Z,16.95
2022-09-12T01:24:44.918Z,17.27
2022-09-12T01:27:24.185Z,25.73
2022-09-12T01:30:22.132Z,23.90
2022-09-12T01:33:01.991Z,25.02
2022-09-12T01:35:34.398Z,23.42
2022-09-12T01:38:13.273Z,25.98
2022-09-12T01:40:46.451Z,14.63
2022-09-12T01:43:21.362Z,27.70
2022-09-12T01:45:55.583Z,20.45
2022-09-12T01:48:26.513Z,18.77
2022-09-12T01:51:00.517Z,19.17
2022-09-12T01:53:31.379Z,23.35
2022-09-12T01:56:09.849Z,25.60
2022-09-12T01:58:42.088Z,19.05
2022-09-12T02:01:12.825Z,20.27
2022-09-12T02:03:45.936Z,19.52
2022-09-12T02:06:18.574Z,26.17
2022-09-12T02:08:49.834Z,28.02
2022-09-12T02:11:18.049Z,19.77
2022-09-12T02:13:49.712Z,28.67
2022-09-12T02:16:20.333Z,19.40
2022-09-12T02:18:54.583Z,25.33
2022-09-12T02:21:24.248Z,20.10
2022-09-12T02:23:56.674Z,21.05
2022-09-12T02:26:29.356Z,21.83
2022-09-12T02:28:58.807Z,20.98
2022-09-12T02:31:30.247Z,18.52
2022-09-12T02:34:10.769Z,24.88
2022-09-12T02:36:50.117Z,20.98
2022-09-12T02:39:21.538Z,23.40
2022-09-12T02:41:51.779Z,25.45
2022-09-12T02:44:20.106Z,16.30
2022-09-12T02:46:50.366Z,21.70
2022-09-12T02:49:20.042Z,18.10
2022-09-12T02:51:49.230Z,20.42
2022-09-12T02:54:19.163Z,22.88
2022-09-12T02:56:47.547Z,18.48
2022-09-12T02:59:18.062Z,21.52
2022-09-12T03:02:05.643Z,18.55
2022-09-12T03:04:48.321Z,24.30
2022-09-12T03:07:22.002Z,29.07
2022-09-12T03:09:55.635Z,22.98
2022-09-12T03:12:34.003Z,21.73
2022-09-12T03:15:14.325Z,23.55
2022-09-12T03:17:50.871Z,27.00
2022-09-12T03:20:24.418Z,24.35
2022-09-12T03:22:55.964Z,25.63
2022-09-12T03:25:28.481Z,27.40
2022-09-12T03:28:00.210Z,28.58
2022-09-12T03:30:28.915Z,30.38
2022-09-12T03:32:57.100Z,21.63
2022-09-12T03:35:27.138Z,26.25
2022-09-12T03:37:55.233Z,23.67
2022-09-12T03:40:23.557Z,28.77
2022-09-12T03:42:51.869Z,27.58
2022-09-12T03:45:19.940Z,24.23
2022-09-12T03:47:50.117Z,32.72
2022-09-12T03:50:18.717Z,25.40
2022-09-12T03:52:48.278Z,25.73
2022-09-12T03:55:16.551Z,28.50
2022-09-12T03:57:44.891Z,21.98
2022-09-12T04:00:19.074Z,19.25
2022-09-12T04:02:48.522Z,20.67
2022-09-12T04:05:16.767Z,27.65
2022-09-12T04:07:44.894Z,25.77
2022-09-12T04:10:16.209Z,27.52
2022-09-12T04:12:44.769Z,26.33
2022-09-12T04:15:13.536Z,23.52
2022-09-12T04:17:41.832Z,25.33
2022-09-12T04:20:10.694Z,26.83
2022-09-12T04:22:38.862Z,23.58
2022-09-12T04:25:08.487Z,23.90
2022-09-12T04:27:38.063Z,26.35
2022-09-12T04:30:07.266Z,20.48
2022-09-12T04:32:35.618Z,24.05
2022-09-12T04:35:03.830Z,26.02
2022-09-12T04:37:32.011Z,22.70
2022-09-12T04:40:00.495Z,28.05
2022-09-12T04:42:28.727Z,21.92
2022-09-12T04:44:58.295Z,23.58
2022-09-12T04:47:26.626Z,19.02
2022-09-12T04:49:54.752Z,29.30
2022-09-12T04:52:23.009Z,29.48
2022-09-12T04:54:51.305Z,27.35
2022-09-12T04:57:19.448Z,31.67
2022-09-12T04:59:47.563Z,26.10
2022-09-12T05:02:17.262Z,25.92
2022-09-12T05:04:47.008Z,129.63
2022-09-12T05:07:15.207Z,38.92
2022-09-12T05:09:45.071Z,30.75
2022-09-12T05:12:14.347Z,55.53
2022-09-12T05:14:44.390Z,28.08
2022-09-12T05:17:12.642Z,25.70
2022-09-12T05:19:43.432Z,32.05
2022-09-12T05:22:11.588Z,32.80
2022-09-12T05:24:47.259Z,29.15
2022-09-12T05:27:18.046Z,29.73
2022-09-12T05:29:46.417Z,30.17
2022-09-12T05:32:14.593Z,24.55
2022-09-12T05:34:44.129Z,35.08
2022-09-12T05:37:13.275Z,27.05
2022-09-12T05:39:41.540Z,30.92
2022-09-12T05:42:10.018Z,27.80
2022-09-12T05:44:38.271Z,28.70
2022-09-12T05:47:06.723Z,27.35
2022-09-12T05:49:36.560Z,28.35
2022-09-12T05:52:06.547Z,26.35
2022-09-12T05:54:34.746Z,26.30
2022-09-12T05:57:02.977Z,29.08
2022-09-12T05:59:31.243Z,33.05
2022-09-12T06:01:59.470Z,39.60
2022-09-12T06:04:28.190Z,24.67
2022-09-12T06:06:56.780Z,25.83
2022-09-12T06:09:26.281Z,47.78
2022-09-12T06:11:57.176Z,29.20
2022-09-12T06:14:27.109Z,26.13
2022-09-12T06:16:55.269Z,26.90
2022-09-12T06:19:25.347Z,28.27
2022-09-12T06:21:53.522Z,27.30
2022-09-12T06:24:22.376Z,30.08
2022-09-12T06:26:54.805Z,22.27
2022-09-12T06:29:23.168Z,25.13
2022-09-12T06:31:51.335Z,26.45
2022-09-12T06:34:20.214Z,26.05
2022-09-12T06:36:50.913Z,27.75
2022-09-12T06:39:20.766Z,27.75
2022-09-12T06:41:49.563Z,25.02
2022-09-12T06:44:20.356Z,29.63
2022-09-12T06:46:48.969Z,28.30
2022-09-12T06:49:19.268Z,27.75
2022-09-12T06:51:47.485Z,35.53
2022-09-12T06:54:17.064Z,22.77
2022-09-12T06:56:45.874Z,26.38
2022-09-12T06:59:14.125Z,27.40
2022-09-12T07:01:43.856Z,28.70
2022-09-12T07:04:12.062Z,33.13
2022-09-12T07:06:41.528Z,30.25
2022-09-12T07:09:11.755Z,31.10
2022-09-12T07:11:41.294Z,32.83
2022-09-12T07:14:11.527Z,28.77
2022-09-12T07:16:39.702Z,29.65
2022-09-12T07:19:09.967Z,32.85
2022-09-12T07:21:40.536Z,37.78
2022-09-12T07:24:10.502Z,39.58
2022-09-12T07:26:40.117Z,41.90
2022-09-12T07:29:34.768Z,40.08
2022-09-12T07:31:57.759Z,34.75
2022-09-12T07:34:27.393Z,37.95
2022-09-12T07:36:55.733Z,47.72
2022-09-12T07:39:24.039Z,43.22
2022-09-12T07:41:52.219Z,47.13
2022-09-12T07:44:24.905Z,33.08
2022-09-12T07:46:54.632Z,37.22
2022-09-12T07:49:24.185Z,53.38
2022-09-12T07:51:54.086Z,52.78
2022-09-12T07:54:22.418Z,56.53
2022-09-12T07:56:50.591Z,55.67
2022-09-12T07:59:41.389Z,54.90
2022-09-12T08:02:07.523Z,47.85
2022-09-12T08:04:37.603Z,64.22
2022-09-12T08:07:07.489Z,55.00
2022-09-12T08:09:35.697Z,57.53
2022-09-12T08:12:04.243Z,68.15
2022-09-12T08:14:34.388Z,65.47
2022-09-12T08:17:02.495Z,60.72
2022-09-12T08:19:32.250Z,58.08
2022-09-12T08:22:00.434Z,59.78
2022-09-12T08:24:29.983Z,57.08
2022-09-12T08:26:58.285Z,68.65
2022-09-12T08:29:26.471Z,72.72
2022-09-12T08:31:57.279Z,72.82
2022-09-12T08:34:26.447Z,71.65
2022-09-12T08:36:55.290Z,84.00
2022-09-12T08:39:24.708Z,70.15
2022-09-12T08:41:59.923Z,68.82
2022-09-12T08:44:51.158Z,65.82
2022-09-12T08:47:23.370Z,66.90
2022-09-12T08:50:02.310Z,73.43
2022-09-12T08:52:37.536Z,71.25
2022-09-12T08:55:07.599Z,74.32
2022-09-12T08:57:37.105Z,75.53
2022-09-12T09:00:08.210Z,70.63
2022-09-12T09:03:07.534Z,76.50
2022-09-12T09:05:47.402Z,82.72
2022-09-12T09:08:23.274Z,72.63
2022-09-12T09:10:55.426Z,80.85
2022-09-12T09:13:52.345Z,77.85
2022-09-12T09:16:27.505Z,76.80
2022-09-12T09:19:01.481Z,63.60
2022-09-12T09:21:34.086Z,67.25
2022-09-12T09:24:05.057Z,68.68
2022-09-12T09:26:42.340Z,67.35
2022-09-12T09:29:18.861Z,78.15
2022-09-12T09:31:50.397Z,68.47
2022-09-12T09:34:21.955Z,69.95
2022-09-12T09:36:54.536Z,66.95
2022-09-12T09:39:31.786Z,61.83
2022-09-12T09:42:13.092Z,73.65
2022-09-12T09:44:43.933Z,55.83
2022-09-12T09:47:12.496Z,40.83
2022-09-12T09:49:43.382Z,67.72
2022-09-12T09:52:14.617Z,73.60
2022-09-12T09:54:46.135Z,66.80
2022-09-12T09:57:46.715Z,46.72
2022-09-12T10:00:31.899Z,67.72
2022-09-12T10:03:23.843Z,67.03
2022-09-12T10:05:53.994Z,58.13
2022-09-12T10:08:24.161Z,46.35
2022-09-12T10:10:57.191Z,53.22
2022-09-12T10:13:29.551Z,54.08
2022-09-12T10:16:01.646Z,65.07
2022-09-12T10:18:41.881Z,53.75
2022-09-12T10:21:28.246Z,63.80
2022-09-12T10:24:03.324Z,58.42
2022-09-12T10:26:37.464Z,45.40
2022-09-12T10:29:12.669Z,51.45
2022-09-12T10:31:48.957Z,52.70
2022-09-12T10:34:27.960Z,38.10
2022-09-12T10:37:01.506Z,61.60
2022-09-12T10:39:31.143Z,60.80
2022-09-12T10:41:59.363Z,54.28
2022-09-12T10:44:29.861Z,52.20
2022-09-12T10:47:00.167Z,56.63
2022-09-12T10:49:31.569Z,55.63
2022-09-12T10:52:18.469Z,60.22
2022-09-12T10:54:46.856Z,53.10
2022-09-12T10:57:34.044Z,53.83
2022-09-12T11:00:17.305Z,69.63
2022-09-12T11:02:52.392Z,52.50
2022-09-12T11:05:42.041Z,66.80
2022-09-12T11:08:22.010Z,65.47
2022-09-12T11:10:57.245Z,55.10
2022-09-12T11:13:50.422Z,56.65
2022-09-12T11:16:25.915Z,55.67
2022-09-12T11:19:05.656Z,57.17
2022-09-12T11:21:46.386Z,57.15
2022-09-12T11:24:34.935Z,60.42
2022-09-12T11:27:12.250Z,60.20
2022-09-12T11:29:49.875Z,52.42
2022-09-12T11:32:34.463Z,56.60
2022-09-12T11:35:08.320Z,55.30
2022-09-12T11:37:47.312Z,45.40
2022-09-12T11:40:27.912Z,37.97
2022-09-12T11:43:01.091Z,45.83
2022-09-12T11:45:31.427Z,45.70
2022-09-12T11:48:05.495Z,50.85
2022-09-12T11:50:34.963Z,40.70
2022-09-12T11:53:11.235Z,36.65
2022-09-12T11:55:48.149Z,40.60
2022-09-12T11:58:16.762Z,40.20
2022-09-12T12:00:48.381Z,45.95
2022-09-12T12:03:25.323Z,35.45
2022-09-12T12:05:57.222Z,39.63
2022-09-12T12:08:27.759Z,35.85
2022-09-12T12:10:57.573Z,36.63
2022-09-12T12:13:29.994Z,34.60
2022-09-12T12:16:00.951Z,30.90
2022-09-12T12:18:30.230Z,34.33
2022-09-12T12:21:21.247Z,32.78
2022-09-12T12:24:05.069Z,31.08
2022-09-12T12:27:00.286Z,26.15
2022-09-12T12:29:43.678Z,36.33
2022-09-12T12:32:30.637Z,31.58
2022-09-12T12:35:50.480Z,33.53
2022-09-12T12:38:30.717Z,33.70
2022-09-12T12:41:34.510Z,27.33
2022-09-12T12:44:41.668Z,22.63
2022-09-12T12:47:17.383Z,21.02
2022-09-12T12:49:52.916Z,21.30
2022-09-12T12:52:21.502Z,24.42
2022-09-12T12:55:01.925Z,22.25
2022-09-12T12:57:37.110Z,24.95
2022-09-12T13:00:09.009Z,21.25
2022-09-12T13:02:40.100Z,20.98
2022-09-12T13:05:19.309Z,23.48
2022-09-12T13:07:48.374Z,23.33
2022-09-12T13:10:24.446Z,24.83
2022-09-12T13:12:53.900Z,21.05
2022-09-12T13:15:52.126Z,17.30
2022-09-12T13:18:26.478Z,18.17
2022-09-12T13:20:59.530Z,24.67
2022-09-12T13:23:29.984Z,18.35
2022-09-12T13:26:00.661Z,19.45
2022-09-12T13:28:29.960Z,23.55
2022-09-12T13:31:01.467Z,17.77
2022-09-12T13:33:36.259Z,18.67
2022-09-12T13:36:43.807Z,26.38
2022-09-12T13:39:18.916Z,15.13
2022-09-12T13:42:20.524Z,21.50
2022-09-12T13:44:52.426Z,19.58
2022-09-12T13:47:27.424Z,22.20
2022-09-12T13:49:56.158Z,23.27
2022-09-12T13:52:27.543Z,15.95
2022-09-12T13:54:57.125Z,21.52
2022-09-12T13:57:33.848Z,19.48
2022-09-12T14:00:07.605Z,17.45
2022-09-12T14:02:38.035Z,15.63
2022-09-12T14:05:14.037Z,21.23
2022-09-12T14:07:56.419Z,24.10
2022-09-12T14:10:32.076Z,19.77
2022-09-12T14:13:03.024Z,17.52
2022-09-12T14:15:35.659Z,22.15
2022-09-12T14:18:05.546Z,15.70
2022-09-12T14:20:38.046Z,19.45
2022-09-12T14:23:12.513Z,21.95
2022-09-12T14:25:42.135Z,14.90
2022-09-12T14:28:13.445Z,20.65
2022-09-12T14:30:43.195Z,16.80
2022-09-12T14:33:20.910Z,31.70
2022-09-12T14:35:50.423Z,19.80
2022-09-12T14:38:26.099Z,21.45
2022-09-12T14:41:01.051Z,24.00
2022-09-12T14:43:30.640Z,17.90
2022-09-12T14:46:02.802Z,20.00
2022-09-12T14:48:33.122Z,21.52
2022-09-12T14:51:01.475Z,22.42
2022-09-12T14:53:34.596Z,19.08
2022-09-12T14:56:10.485Z,21.35
2022-09-12T14:58:39.130Z,16.88
2022-09-12T15:01:32.642Z,16.27
2022-09-12T15:04:01.034Z,16.10
2022-09-12T15:06:30.753Z,22.83
2022-09-12T15:08:59.867Z,16.65
2022-09-12T15:11:28.157Z,15.63
2022-09-12T15:13:56.292Z,20.33
2022-09-12T15:16:24.459Z,15.73
2022-09-12T15:18:54.528Z,20.48
2022-09-12T15:21:23.073Z,16.00
2022-09-12T15:23:52.410Z,12.13
2022-09-12T15:26:23.134Z,16.13
2022-09-12T15:28:52.275Z,17.88
2022-09-12T15:31:25.436Z,16.42
2022-09-12T15:33:56.035Z,21.02
2022-09-12T15:36:25.845Z,18.10
2022-09-12T15:38:56.068Z,13.57
2022-09-12T15:41:26.976Z,20.25
2022-09-12T15:43:55.494Z,18.02
2022-09-12T15:46:24.036Z,21.13
2022-09-12T15:48:55.918Z,17.10
2022-09-12T15:51:24.241Z,19.70
2022-09-12T15:53:53.139Z,15.23
2022-09-12T15:56:27.476Z,15.95
2022-09-12T15:58:59.349Z,16.80
2022-09-12T16:01:28.883Z,23.48
2022-09-12T16:03:59.072Z,19.55
2022-09-12T16:06:27.997Z,16.48
2022-09-12T16:08:56.552Z,16.35
2022-09-12T16:11:26.488Z,15.68
2022-09-12T16:13:55.604Z,18.45
2022-09-12T16:16:24.085Z,11.20
2022-09-12T16:18:52.317Z,15.38
2022-09-12T16:21:23.058Z,16.17
2022-09-12T16:23:53.089Z,16.10
2022-09-12T16:26:21.350Z,14.02
2022-09-12T16:28:49.896Z,13.13
2022-09-12T16:31:18.217Z,18.40
2022-09-12T16:33:46.519Z,12.75
2022-09-12T16:36:16.659Z,15.00
2022-09-12T16:38:47.691Z,15.50
2022-09-12T16:41:16.919Z,33.35
2022-09-12T16:43:45.638Z,20.13
2022-09-12T16:46:16.154Z,13.45
2022-09-12T16:48:49.549Z,23.00
2022-09-12T16:51:21.916Z,14.80
2022-09-12T16:53:51.898Z,12.73
2022-09-12T16:56:20.404Z,12.18
2022-09-12T16:58:49.182Z,13.65
2022-09-12T17:01:19.405Z,13.90
2022-09-12T17:03:47.688Z,12.90
2022-09-12T17:06:17.298Z,11.98
2022-09-12T17:08:47.501Z,11.80
2022-09-12T17:11:18.754Z,11.38
2022-09-12T17:14:06.091Z,13.68
2022-09-12T17:16:36.196Z,11.70
2022-09-12T17:19:07.318Z,12.75
2022-09-12T17:21:36.674Z,12.02
2022-09-12T17:24:05.321Z,12.25
2022-09-12T17:26:34.872Z,10.82
2022-09-12T17:29:03.443Z,10.85
2022-09-12T17:31:32.110Z,11.07
2022-09-12T17:34:01.142Z,10.52
2022-09-12T17:36:32.130Z,10.85
2022-09-12T17:39:00.573Z,12.35
2022-09-12T17:41:32.353Z,9.27
2022-09-12T17:44:03.657Z,13.07
2022-09-12T17:46:35.247Z,10.55
2022-09-12T17:49:04.865Z,10.25
2022-09-12T17:51:35.377Z,16.33
2022-09-12T17:54:05.618Z,12.20
2022-09-12T17:56:35.751Z,14.07
2022-09-12T17:59:06.704Z,11.50
2022-09-12T18:01:52.431Z,9.90
2022-09-12T18:04:21.158Z,9.63
2022-09-12T18:06:49.770Z,12.50
2022-09-12T18:09:19.776Z,10.27
2022-09-12T18:11:49.164Z,12.20
2022-09-12T18:14:19.396Z,10.32
2022-09-12T18:16:49.229Z,12.52
2022-09-12T18:19:17.834Z,11.13
2022-09-12T18:21:46.976Z,10.63
2022-09-12T18:24:15.763Z,11.77
2022-09-12T18:26:45.029Z,10.77
2022-09-12T18:29:16.994Z,12.98
2022-09-12T18:31:47.980Z,9.85
2022-09-12T18:34:17.332Z,24.58
2022-09-12T18:36:46.971Z,10.55
2022-09-12T18:39:15.247Z,13.55
2022-09-12T18:41:43.788Z,10.38
2022-09-12T18:44:12.779Z,12.73
2022-09-12T18:46:43.042Z,10.90
2022-09-12T18:49:12.992Z,10.05
2022-09-12T18:51:42.004Z,12.82
2022-09-12T18:54:14.855Z,16.38
2022-09-12T18:56:45.976Z,9.73
2022-09-12T18:59:15.425Z,10.77
2022-09-12T19:01:44.476Z,12.27
2022-09-12T19:04:16.859Z,13.43
2022-09-12T19:06:46.307Z,12.82
2022-09-12T19:09:16.464Z,11.77
2022-09-12T19:11:49.670Z,19.35
2022-09-12T19:16:47.313Z,14.18
2022-09-12T19:19:16.839Z,11.23
2022-09-12T19:21:45.289Z,14.38
2022-09-12T19:24:14.489Z,12.35
2022-09-12T19:26:42.771Z,13.20
2022-09-12T19:29:14.132Z,14.10
2022-09-12T19:31:42.499Z,13.82
2022-09-12T19:34:12.233Z,13.93
2022-09-12T19:36:46.694Z,11.43
2022-09-12T19:39:16.389Z,16.10
2022-09-12T19:41:44.897Z,16.50
2022-09-12T19:44:13.071Z,15.35
2022-09-12T19:46:41.929Z,14.70
2022-09-12T19:49:12.100Z,12.18
2022-09-12T19:51:41.936Z,14.98
2022-09-12T19:54:10.338Z,17.67
2022-09-12T19:56:38.638Z,12.50
2022-09-12T19:59:06.779Z,18.17
2022-09-12T20:01:37.233Z,14.07
2022-09-12T20:04:07.033Z,15.82
2022-09-12T20:06:35.319Z,12.32
2022-09-12T20:09:05.199Z,14.98
2022-09-12T20:11:33.614Z,12.77
2022-09-12T20:14:01.836Z,13.40
2022-09-12T20:16:30.335Z,13.73
2022-09-12T20:19:02.651Z,11.43
2022-09-12T20:21:35.890Z,12.55
2022-09-12T20:24:07.102Z,15.18
2022-09-12T20:26:35.746Z,14.77
2022-09-12T20:29:04.847Z,13.18
2022-09-12T20:31:33.769Z,15.80
2022-09-12T20:34:02.345Z,15.27
2022-09-12T20:36:30.557Z,13.68
2022-09-12T20:39:01.481Z,12.77
2022-09-12T20:41:33.014Z,14.90
2022-09-12T20:44:01.185Z,14.07
2022-09-12T20:46:30.027Z,17.75
2022-09-12T20:48:58.924Z,14.30
2022-09-12T20:51:29.831Z,14.63
2022-09-12T20:53:58.853Z,13.52
2022-09-12T20:56:28.069Z,15.50
2022-09-12T20:59:06.524Z,18.48
2022-09-12T21:01:35.016Z,10.18
2022-09-12T21:04:04.027Z,14.02
2022-09-12T21:06:32.712Z,15.98
2022-09-12T21:09:00.928Z,13.48
2022-09-12T21:11:29.709Z,15.32
2022-09-12T21:13:59.614Z,17.50
2022-09-12T21:16:28.022Z,15.95
2022-09-12T21:18:57.274Z,17.90
2022-09-12T21:21:26.080Z,16.73
2022-09-12T21:23:55.448Z,14.55
2022-09-12T21:26:23.575Z,13.50
2022-09-12T21:28:51.846Z,16.85
2022-09-12T21:31:21.477Z,14.10
2022-09-12T21:33:50.222Z,14.65
2022-09-12T21:36:19.111Z,19.42
2022-09-12T21:38:48.696Z,13.75
2022-09-12T21:41:18.441Z,17.48
2022-09-12T21:43:46.714Z,15.75
2022-09-12T21:46:14.862Z,15.60
2022-09-12T21:48:45.469Z,21.13
2022-09-12T21:51:13.726Z,18.75
2022-09-12T21:53:41.887Z,14.02
2022-09-12T21:56:10.847Z,17.48
2022-09-12T21:58:40.090Z,19.85
2022-09-12T22:01:10.503Z,13.98
2022-09-12T22:03:38.681Z,16.80
2022-09-12T22:06:08.614Z,18.20
2022-09-12T22:08:38.925Z,13.52
2022-09-12T22:11:09.811Z,15.70
2022-09-12T22:13:39.354Z,18.55
2022-09-12T22:16:08.003Z,11.68
2022-09-12T22:18:37.593Z,15.75
2022-09-12T22:21:09.166Z,11.35
2022-09-12T22:23:55.054Z,13.23
2022-09-12T22:26:23.282Z,15.10
2022-09-12T22:28:51.748Z,19.40
2022-09-12T22:31:20.453Z,25.38
2022-09-12T22:33:48.868Z,24.13
2022-09-12T22:36:18.469Z,27.48
2022-09-12T22:38:46.829Z,30.83
2022-09-12T22:41:15.090Z,33.67
2022-09-12T22:43:43.200Z,37.20
2022-09-12T22:46:13.519Z,42.75
2022-09-12T22:48:42.049Z,45.38
2022-09-12T22:51:10.381Z,35.38
2022-09-12T22:53:39.971Z,37.45
2022-09-12T22:56:08.624Z,37.53
2022-09-12T22:58:37.983Z,34.33
2022-09-12T23:01:07.345Z,29.90
2022-09-12T23:03:36.482Z,27.55
2022-09-12T23:06:05.666Z,26.80
2022-09-12T23:08:36.025Z,24.55
2022-09-12T23:11:09.422Z,22.08
2022-09-12T23:13:37.917Z,19.05
2022-09-12T23:16:08.045Z,16.75
2022-09-12T23:18:37.134Z,17.13
2022-09-12T23:21:07.141Z,12.70
2022-09-12T23:23:36.499Z,21.17
2022-09-12T23:26:12.278Z,15.63
2022-09-12T23:28:40.917Z,14.68
2022-09-12T23:31:10.195Z,15.07
2022-09-12T23:33:38.591Z,15.50
2022-09-12T23:36:11.484Z,18.77
2022-09-12T23:38:39.762Z,14.95
2022-09-12T23:41:09.893Z,13.48
2022-09-12T23:43:38.408Z,14.23
2022-09-12T23:46:08.326Z,14.38
2022-09-12T23:48:36.628Z,13.85
2022-09-12T23:51:07.392Z,14.10
2022-09-12T23:53:35.978Z,13.32
2022-09-12T23:56:04.633Z,13.07
2022-09-12T23:58:34.460Z,15.77
